Piedmont, California
Current Conditions -  °F | °C
As of 12:53 AM on Friday 24 Oct 2014 (Local Time) from KOAK Reporting Station
Few Clouds Few Clouds  
Wind Chill: 57°   Ceiling: Unl
Heat Index: 57°   Visibility: 10mi
Dew Point: 52°   Wind: 8mph
Humidity: 83%   Direction: 70°ENE
Pressure: 29.98"   Gusts: NA
Location:  37.82°N, 122.23°W
Report Text: KOAK 240753Z 07007KT 10SM FEW012 14/11 A2998 RMK AO2 SLP151 P0001 T01390111 402220128
Loading
Personal Weather Stations






























Interactive Weather Map
Tropical Storm Tracking
New forecast layout! Learn more

10-Day Weather Forecast

Advertisements
Track Severe Weather on mobile